Portada
METAR-TAF:

METAR-TAF

Aeropuertos :

Manhattan, Kansas, Estados Unidos

latitud: 39-08-07N, longitud: 096-40-40W, altitud: 321 m

Observación

El informe se hizo hace 16 minutos, a las 01:52 UTC
Viento 4 kt del noroeste
Temperatura 22°C
Humedad 57%
Presión 1018 hPa
Visibilidad: 16.1 km
Cielo despejado

METAR: KMHK 290152Z 31004KT 10SM CLR 22/13 A3005 RMK AO2 SLP168 T02170133

Hora: 21:08 (02:08 UTC)

Pronóstico

El informe se hizo hace 2 horas y 40 minutos, a las 23:28 UTC
Pronóstico válido del 29 a las 00 UTC al 29 a las 24 UTC
Viento 6 kt del norte
Visibilidad: 10 km
Escasas nubes a una altura de 9000 ft
Escasas nubes a una altura de 20000 ft

TAF: KMHK 282328Z 2900/2924 01006KT P6SM FEW090 FEW200

Observaciones y pronósticos meteorológicos de más de 4000 aeropuertos (mensajes METAR y TAF).

Los puntos amarillos y rojos representan las estaciones disponibles.

Ponga el ratón en el punto deseado para ver el nombre de la estación.

Haga clic para ver las observaciones y los pronósticos meteorológicos.

Para cambiar el mapa : haga clic en los botones verdes con una cruz de color negro para hacer un zoom, en el botón verde con un guión para alejar o en las flechas verdes para mapas adyacentes.


METAR-TAF: